ITY74 LIRQ-LIRF
Flight info
| Callsign | ITY74 |
|---|---|
| Flight time | N/A |
| Altitude | 19000 |
| Route | KUGIX L995 IBRID DCT AMTEL DCT RITEB |
| Aircraft | A319/M-SDE3FGHIRWY/LB1 |
Departure
| Time | 2026-04-27 17:03 |
|---|---|
| Airport | Florence Airport, Peretola (LIRQ) |
Arrival
| Time | N/A |
|---|---|
| Airport | Rome–Fiumicino Leonardo da Vinci International Airport (LIRF) |
| Time | Latitude | Longitude | Altitude | Speed | Heading |
|---|---|---|---|---|---|
| 2026-04-27 16:56 | 43.80772 | 11.19598 | 127 ft | 0 kts | 43° |
| 2026-04-27 16:58 | 43.80772 | 11.19597 | 127 ft | 0 kts | 43° |
| 2026-04-27 17:00 | 43.80773 | 11.19600 | 125 ft | 0 kts | 50° |
| 2026-04-27 17:01 | 43.80738 | 11.19618 | 131 ft | 17 kts | 176° |
| 2026-04-27 17:01 | 43.80632 | 11.19693 | 128 ft | 18 kts | 137° |
| 2026-04-27 17:01 | 43.80591 | 11.19842 | 131 ft | 19 kts | 69° |
| 2026-04-27 17:01 | 43.80773 | 11.20156 | 133 ft | 60 kts | 48° |
| 2026-04-27 17:02 | 43.81054 | 11.20583 | 126 ft | 60 kts | 48° |
| 2026-04-27 17:02 | 43.81325 | 11.21002 | 133 ft | 56 kts | 48° |
| 2026-04-27 17:02 | 43.81475 | 11.21287 | 133 ft | 8 kts | 74° |
| 2026-04-27 17:02 | 43.81492 | 11.21269 | 133 ft | 2 kts | 282° |
| 2026-04-27 17:03 | 43.81471 | 11.21227 | 132 ft | 9 kts | 222° |
| 2026-04-27 17:03 | 43.81291 | 11.20950 | 134 ft | 90 kts | 228° |
| 2026-04-27 17:03 | 43.80689 | 11.19987 | 395 ft | 151 kts | 231° |
| 2026-04-27 17:03 | 43.80146 | 11.18784 | 1414 ft | 148 kts | 254° |
| 2026-04-27 17:04 | 43.80324 | 11.17388 | 2344 ft | 160 kts | 294° |
| 2026-04-27 17:04 | 43.80765 | 11.15849 | 3058 ft | 186 kts | 281° |
| 2026-04-27 17:04 | 43.80919 | 11.13962 | 3933 ft | 207 kts | 273° |
| 2026-04-27 17:04 | 43.80983 | 11.11926 | 5040 ft | 217 kts | 271° |
| 2026-04-27 17:05 | 43.81033 | 11.09801 | 6188 ft | 225 kts | 271° |
| 2026-04-27 17:05 | 43.81089 | 11.07603 | 7307 ft | 231 kts | 271° |
| 2026-04-27 17:05 | 43.81155 | 11.05355 | 8480 ft | 237 kts | 272° |
| 2026-04-27 17:05 | 43.81209 | 11.03805 | 9306 ft | 240 kts | 274° |
| 2026-04-27 17:06 | 43.82047 | 11.00974 | 10768 ft | 249 kts | 314° |
| 2026-04-27 17:06 | 43.83499 | 10.99680 | 11894 ft | 253 kts | 343° |
| 2026-04-27 17:06 | 43.85244 | 10.99521 | 13059 ft | 255 kts | 13° |
| 2026-04-27 17:06 | 43.86840 | 11.00556 | 14185 ft | 257 kts | 41° |
| 2026-04-27 17:07 | 43.87877 | 11.02570 | 15207 ft | 263 kts | 70° |
| 2026-04-27 17:07 | 43.88035 | 11.05097 | 16202 ft | 271 kts | 100° |
| 2026-04-27 17:07 | 43.87241 | 11.07485 | 17185 ft | 279 kts | 124° |
| 2026-04-27 17:07 | 43.86132 | 11.09716 | 18207 ft | 284 kts | 124° |
| 2026-04-27 17:08 | 43.84985 | 11.12006 | 18804 ft | 292 kts | 124° |
| 2026-04-27 17:08 | 43.83828 | 11.14322 | 19006 ft | 293 kts | 124° |
| 2026-04-27 17:08 | 43.82670 | 11.16648 | 19075 ft | 293 kts | 123° |
| 2026-04-27 17:08 | 43.81436 | 11.18889 | 19081 ft | 293 kts | 133° |
| 2026-04-27 17:09 | 43.79835 | 11.20684 | 19095 ft | 310 kts | 148° |
| 2026-04-27 17:09 | 43.77777 | 11.22093 | 19097 ft | 350 kts | 156° |
| 2026-04-27 17:09 | 43.75481 | 11.23535 | 19087 ft | 371 kts | 156° |
| 2026-04-27 17:09 | 43.73107 | 11.25021 | 19082 ft | 376 kts | 156° |
| 2026-04-27 17:10 | 43.70746 | 11.26500 | 19081 ft | 378 kts | 155° |
| 2026-04-27 17:10 | 43.68350 | 11.28001 | 19082 ft | 378 kts | 155° |
| 2026-04-27 17:10 | 43.65954 | 11.29502 | 19078 ft | 378 kts | 155° |
| 2026-04-27 17:10 | 43.63555 | 11.31005 | 19079 ft | 379 kts | 155° |
| 2026-04-27 17:11 | 43.61154 | 11.32511 | 19080 ft | 379 kts | 155° |
| 2026-04-27 17:11 | 43.56346 | 11.35515 | 19084 ft | 379 kts | 155° |
| 2026-04-27 17:11 | 43.53958 | 11.37056 | 19081 ft | 379 kts | 153° |
| 2026-04-27 17:12 | 43.49295 | 11.40454 | 19083 ft | 379 kts | 150° |
| 2026-04-27 17:12 | 43.46991 | 11.42222 | 19082 ft | 379 kts | 150° |
| 2026-04-27 17:12 | 43.44694 | 11.43991 | 19080 ft | 379 kts | 150° |
| 2026-04-27 17:13 | 43.42387 | 11.45751 | 19077 ft | 379 kts | 151° |
| 2026-04-27 17:13 | 43.40073 | 11.47494 | 19082 ft | 379 kts | 151° |
| 2026-04-27 17:13 | 43.37756 | 11.49222 | 19082 ft | 379 kts | 151° |
| 2026-04-27 17:13 | 43.35434 | 11.50942 | 19078 ft | 379 kts | 152° |
| 2026-04-27 17:14 | 43.33108 | 11.52659 | 19077 ft | 379 kts | 152° |
| 2026-04-27 17:14 | 43.30790 | 11.54370 | 19081 ft | 379 kts | 151° |
| 2026-04-27 17:14 | 43.28469 | 11.56089 | 19080 ft | 379 kts | 151° |
| 2026-04-27 17:14 | 43.26150 | 11.57806 | 19077 ft | 379 kts | 151° |
| 2026-04-27 17:15 | 43.23831 | 11.59523 | 19078 ft | 379 kts | 151° |
| 2026-04-27 17:15 | 43.21570 | 11.61374 | 19080 ft | 379 kts | 144° |
| 2026-04-27 17:15 | 43.19492 | 11.63589 | 19080 ft | 379 kts | 141° |
| 2026-04-27 17:15 | 43.17421 | 11.65823 | 19080 ft | 378 kts | 141° |
| 2026-04-27 17:16 | 43.15351 | 11.68050 | 19083 ft | 379 kts | 141° |
| 2026-04-27 17:16 | 43.13280 | 11.70273 | 19081 ft | 379 kts | 141° |
| 2026-04-27 17:16 | 43.11206 | 11.72493 | 19081 ft | 379 kts | 141° |
| 2026-04-27 17:16 | 43.09130 | 11.74719 | 19080 ft | 379 kts | 141° |
| 2026-04-27 17:17 | 43.07056 | 11.76939 | 19080 ft | 379 kts | 141° |
| 2026-04-27 17:17 | 43.04978 | 11.79155 | 19080 ft | 379 kts | 141° |
| 2026-04-27 17:17 | 43.02897 | 11.81367 | 19082 ft | 379 kts | 141° |
| 2026-04-27 17:18 | 42.98734 | 11.85779 | 19078 ft | 379 kts | 141° |
| 2026-04-27 17:18 | 42.96652 | 11.87987 | 19083 ft | 379 kts | 141° |
| 2026-04-27 17:18 | 42.94575 | 11.90199 | 19082 ft | 379 kts | 141° |
| 2026-04-27 17:18 | 42.92498 | 11.92415 | 19084 ft | 379 kts | 141° |
| 2026-04-27 17:19 | 42.91126 | 11.93881 | 19081 ft | 378 kts | 141° |
| 2026-04-27 17:19 | 42.89085 | 11.96056 | 18963 ft | 367 kts | 141° |
| 2026-04-27 17:19 | 42.87088 | 11.98179 | 18733 ft | 362 kts | 141° |
| 2026-04-27 17:19 | 42.85107 | 12.00273 | 18500 ft | 360 kts | 141° |
| 2026-04-27 17:20 | 42.83130 | 12.02361 | 18257 ft | 358 kts | 141° |
| 2026-04-27 17:20 | 42.81165 | 12.04437 | 17990 ft | 356 kts | 141° |
| 2026-04-27 17:20 | 42.79213 | 12.06500 | 17723 ft | 354 kts | 141° |
| 2026-04-27 17:20 | 42.77273 | 12.08554 | 17468 ft | 352 kts | 141° |
| 2026-04-27 17:21 | 42.75344 | 12.10592 | 17203 ft | 350 kts | 141° |
| 2026-04-27 17:21 | 42.73420 | 12.12615 | 16952 ft | 349 kts | 141° |
| 2026-04-27 17:21 | 42.71510 | 12.14622 | 16698 ft | 344 kts | 141° |
| 2026-04-27 17:21 | 42.69618 | 12.16540 | 16446 ft | 335 kts | 146° |
| 2026-04-27 17:22 | 42.67629 | 12.18151 | 16198 ft | 330 kts | 149° |
| 2026-04-27 17:22 | 42.65656 | 12.19726 | 15948 ft | 328 kts | 149° |
| 2026-04-27 17:22 | 42.63695 | 12.21296 | 15398 ft | 330 kts | 149° |
| 2026-04-27 17:22 | 42.61666 | 12.22920 | 14362 ft | 343 kts | 149° |
| 2026-04-27 17:23 | 42.59606 | 12.24568 | 13385 ft | 342 kts | 149° |
| 2026-04-27 17:23 | 42.57549 | 12.26115 | 12475 ft | 335 kts | 156° |
| 2026-04-27 17:23 | 42.55323 | 12.26864 | 11675 ft | 327 kts | 176° |
| 2026-04-27 17:23 | 42.53090 | 12.26661 | 10931 ft | 318 kts | 188° |
| 2026-04-27 17:24 | 42.50951 | 12.26249 | 10511 ft | 301 kts | 188° |
| 2026-04-27 17:24 | 42.48883 | 12.25845 | 10162 ft | 301 kts | 188° |
| 2026-04-27 17:24 | 42.46819 | 12.25437 | 9788 ft | 299 kts | 188° |
| 2026-04-27 17:24 | 42.44764 | 12.25033 | 9393 ft | 297 kts | 188° |
| 2026-04-27 17:25 | 42.42722 | 12.24635 | 9011 ft | 296 kts | 188° |
| 2026-04-27 17:25 | 42.40689 | 12.24238 | 8624 ft | 294 kts | 188° |
| 2026-04-27 17:25 | 42.38694 | 12.23847 | 8248 ft | 293 kts | 188° |
| 2026-04-27 17:25 | 42.36684 | 12.23454 | 7898 ft | 291 kts | 187° |
| 2026-04-27 17:26 | 42.34692 | 12.23064 | 7527 ft | 288 kts | 187° |
| 2026-04-27 17:26 | 42.32715 | 12.22677 | 7163 ft | 286 kts | 187° |
| 2026-04-27 17:26 | 42.30749 | 12.22292 | 6799 ft | 285 kts | 187° |
| 2026-04-27 17:26 | 42.28792 | 12.21908 | 6434 ft | 283 kts | 187° |
| 2026-04-27 17:27 | 42.26846 | 12.21528 | 6054 ft | 280 kts | 187° |
| 2026-04-27 17:27 | 42.24943 | 12.21157 | 5672 ft | 274 kts | 187° |
| 2026-04-27 17:27 | 42.23092 | 12.20798 | 5421 ft | 261 kts | 187° |
| 2026-04-27 17:27 | 42.21341 | 12.20457 | 5218 ft | 249 kts | 187° |
| 2026-04-27 17:28 | 42.19645 | 12.20126 | 4856 ft | 246 kts | 187° |
| 2026-04-27 17:28 | 42.17948 | 12.19794 | 4480 ft | 245 kts | 188° |
| 2026-04-27 17:28 | 42.14659 | 12.19145 | 4089 ft | 235 kts | 189° |
| 2026-04-27 17:29 | 42.13064 | 12.18717 | 4087 ft | 234 kts | 192° |
| 2026-04-27 17:29 | 42.11478 | 12.18233 | 4101 ft | 234 kts | 193° |
| 2026-04-27 17:29 | 42.09892 | 12.17737 | 4111 ft | 234 kts | 193° |
| 2026-04-27 17:29 | 42.08298 | 12.17241 | 3916 ft | 236 kts | 193° |
| 2026-04-27 17:30 | 42.06668 | 12.16972 | 3427 ft | 240 kts | 175° |
| 2026-04-27 17:30 | 42.03451 | 12.18217 | 2737 ft | 234 kts | 164° |
| 2026-04-27 17:30 | 42.01937 | 12.18863 | 2621 ft | 223 kts | 164° |
| 2026-04-27 17:31 | 42.00515 | 12.19463 | 2542 ft | 202 kts | 165° |
| 2026-04-27 17:31 | 41.99210 | 12.20013 | 2524 ft | 192 kts | 165° |
| 2026-04-27 17:31 | 41.97954 | 12.20541 | 2528 ft | 185 kts | 165° |
| 2026-04-27 17:31 | 41.96734 | 12.21053 | 2542 ft | 183 kts | 165° |
| 2026-04-27 17:32 | 41.95520 | 12.21563 | 2389 ft | 181 kts | 166° |
| 2026-04-27 17:32 | 41.93246 | 12.22522 | 1956 ft | 149 kts | 166° |
| 2026-04-27 17:32 | 41.92325 | 12.22910 | 1772 ft | 130 kts | 167° |
| 2026-04-27 17:33 | 41.91482 | 12.23263 | 1603 ft | 124 kts | 166° |
| 2026-04-27 17:33 | 41.90670 | 12.23603 | 1439 ft | 120 kts | 168° |
| 2026-04-27 17:33 | 41.89879 | 12.23937 | 1285 ft | 119 kts | 167° |
| 2026-04-27 17:33 | 41.89086 | 12.24271 | 962 ft | 119 kts | 168° |
| 2026-04-27 17:34 | 41.88310 | 12.24593 | 674 ft | 117 kts | 167° |
| 2026-04-27 17:34 | 41.87529 | 12.24923 | 532 ft | 118 kts | 167° |
| 2026-04-27 17:34 | 41.86740 | 12.25257 | 393 ft | 119 kts | 166° |
| 2026-04-27 17:34 | 41.85953 | 12.25588 | 252 ft | 118 kts | 166° |
| 2026-04-27 17:35 | 41.85173 | 12.25914 | 104 ft | 116 kts | 167° |
| 2026-04-27 17:35 | 41.84402 | 12.26235 | 37 ft | 115 kts | 167° |
| 2026-04-27 17:35 | 41.83650 | 12.26558 | 19 ft | 104 kts | 163° |
| 2026-04-27 17:35 | 41.82875 | 12.26857 | 15 ft | 154 kts | 162° |
| 2026-04-27 17:36 | 41.81741 | 12.27333 | 529 ft | 175 kts | 165° |
| 2026-04-27 17:36 | 41.80576 | 12.27854 | 1610 ft | 176 kts | 163° |
| 2026-04-27 17:36 | 41.79768 | 12.28233 | 2364 ft | 192 kts | 163° |